sensor_id;sensor_type;location;lat;lon;timestamp;P1;durP1;ratioP1;P2;durP2;ratioP2
56005;SDS011;41888;44.696;10.522;2024-02-04T00:01:55;40.85;;;19.45;;
56005;SDS011;41888;44.696;10.522;2024-02-04T00:04:21;40.67;;;20.05;;
56005;SDS011;41888;44.696;10.522;2024-02-04T00:06:48;43.10;;;20.25;;
56005;SDS011;41888;44.696;10.522;2024-02-04T00:09:14;45.25;;;19.83;;
56005;SDS011;41888;44.696;10.522;2024-02-04T00:11:41;39.38;;;18.10;;
56005;SDS011;41888;44.696;10.522;2024-02-04T00:14:07;39.47;;;18.38;;
56005;SDS011;41888;44.696;10.522;2024-02-04T00:16:34;36.95;;;19.08;;
56005;SDS011;41888;44.696;10.522;2024-02-04T00:19:00;38.33;;;18.02;;
56005;SDS011;41888;44.696;10.522;2024-02-04T00:21:26;39.42;;;18.88;;
56005;SDS011;41888;44.696;10.522;2024-02-04T00:23:52;39.13;;;18.90;;
56005;SDS011;41888;44.696;10.522;2024-02-04T00:26:18;41.00;;;18.83;;
56005;SDS011;41888;44.696;10.522;2024-02-04T00:28:44;39.63;;;18.92;;
56005;SDS011;41888;44.696;10.522;2024-02-04T00:31:11;41.72;;;19.00;;
56005;SDS011;41888;44.696;10.522;2024-02-04T00:33:37;38.25;;;15.75;;
56005;SDS011;41888;44.696;10.522;2024-02-04T00:36:03;38.40;;;17.63;;
56005;SDS011;41888;44.696;10.522;2024-02-04T00:38:29;38.70;;;17.55;;
56005;SDS011;41888;44.696;10.522;2024-02-04T00:40:56;32.95;;;16.08;;
56005;SDS011;41888;44.696;10.522;2024-02-04T00:43:22;30.70;;;15.50;;
56005;SDS011;41888;44.696;10.522;2024-02-04T00:45:48;32.78;;;14.25;;
56005;SDS011;41888;44.696;10.522;2024-02-04T00:48:14;32.83;;;15.32;;
56005;SDS011;41888;44.696;10.522;2024-02-04T00:50:40;28.27;;;13.77;;
56005;SDS011;41888;44.696;10.522;2024-02-04T00:53:07;34.00;;;15.93;;
56005;SDS011;41888;44.696;10.522;2024-02-04T00:55:33;29.05;;;13.57;;
56005;SDS011;41888;44.696;10.522;2024-02-04T00:57:59;26.08;;;12.85;;
56005;SDS011;41888;44.696;10.522;2024-02-04T01:00:27;26.75;;;11.93;;
56005;SDS011;41888;44.696;10.522;2024-02-04T01:02:53;24.27;;;10.65;;
56005;SDS011;41888;44.696;10.522;2024-02-04T01:05:19;23.00;;;10.57;;
56005;SDS011;41888;44.696;10.522;2024-02-04T01:07:45;22.10;;;11.00;;
56005;SDS011;41888;44.696;10.522;2024-02-04T01:10:12;18.10;;;10.10;;
56005;SDS011;41888;44.696;10.522;2024-02-04T01:12:38;20.15;;;10.18;;
56005;SDS011;41888;44.696;10.522;2024-02-04T01:15:04;18.88;;;8.40;;
56005;SDS011;41888;44.696;10.522;2024-02-04T01:17:31;18.20;;;7.85;;
56005;SDS011;41888;44.696;10.522;2024-02-04T01:19:58;19.30;;;7.90;;
56005;SDS011;41888;44.696;10.522;2024-02-04T01:22:25;17.33;;;7.85;;
56005;SDS011;41888;44.696;10.522;2024-02-04T01:24:52;19.42;;;7.72;;
56005;SDS011;41888;44.696;10.522;2024-02-04T01:27:18;13.52;;;6.57;;
56005;SDS011;41888;44.696;10.522;2024-02-04T01:29:44;17.42;;;7.65;;
56005;SDS011;41888;44.696;10.522;2024-02-04T01:32:11;19.10;;;7.43;;
56005;SDS011;41888;44.696;10.522;2024-02-04T01:34:37;16.13;;;7.50;;
56005;SDS011;41888;44.696;10.522;2024-02-04T01:37:03;16.05;;;7.45;;
56005;SDS011;41888;44.696;10.522;2024-02-04T01:39:29;16.17;;;6.50;;
56005;SDS011;41888;44.696;10.522;2024-02-04T01:41:56;16.13;;;7.15;;
56005;SDS011;41888;44.696;10.522;2024-02-04T01:44:22;12.35;;;5.90;;
56005;SDS011;41888;44.696;10.522;2024-02-04T01:46:48;14.30;;;5.70;;
56005;SDS011;41888;44.696;10.522;2024-02-04T01:49:15;12.13;;;6.40;;
56005;SDS011;41888;44.696;10.522;2024-02-04T01:51:41;14.15;;;6.53;;
56005;SDS011;41888;44.696;10.522;2024-02-04T01:54:07;19.50;;;6.47;;
56005;SDS011;41888;44.696;10.522;2024-02-04T01:56:35;12.35;;;6.38;;
56005;SDS011;41888;44.696;10.522;2024-02-04T01:59:02;14.23;;;7.30;;
56005;SDS011;41888;44.696;10.522;2024-02-04T02:01:28;18.10;;;7.57;;
56005;SDS011;41888;44.696;10.522;2024-02-04T02:03:54;13.23;;;5.82;;
56005;SDS011;41888;44.696;10.522;2024-02-04T02:06:22;13.77;;;5.95;;
56005;SDS011;41888;44.696;10.522;2024-02-04T02:08:48;11.45;;;6.28;;
56005;SDS011;41888;44.696;10.522;2024-02-04T02:11:21;14.50;;;7.03;;
56005;SDS011;41888;44.696;10.522;2024-02-04T02:14:16;13.52;;;6.07;;
56005;SDS011;41888;44.696;10.522;2024-02-04T02:16:48;12.73;;;6.20;;
56005;SDS011;41888;44.696;10.522;2024-02-04T02:19:50;14.55;;;5.93;;
56005;SDS011;41888;44.696;10.522;2024-02-04T02:22:14;14.50;;;5.82;;
56005;SDS011;41888;44.696;10.522;2024-02-04T02:24:48;11.63;;;5.45;;
56005;SDS011;41888;44.696;10.522;2024-02-04T02:27:16;12.30;;;5.30;;
56005;SDS011;41888;44.696;10.522;2024-02-04T02:29:42;14.00;;;6.53;;
56005;SDS011;41888;44.696;10.522;2024-02-04T02:32:08;13.23;;;7.15;;
56005;SDS011;41888;44.696;10.522;2024-02-04T02:34:35;11.88;;;5.72;;
56005;SDS011;41888;44.696;10.522;2024-02-04T02:39:57;10.98;;;5.53;;
56005;SDS011;41888;44.696;10.522;2024-02-04T02:42:33;12.15;;;5.47;;
56005;SDS011;41888;44.696;10.522;2024-02-04T02:45:02;12.40;;;6.10;;
56005;SDS011;41888;44.696;10.522;2024-02-04T02:47:29;12.13;;;6.43;;
56005;SDS011;41888;44.696;10.522;2024-02-04T02:49:56;18.60;;;6.97;;
56005;SDS011;41888;44.696;10.522;2024-02-04T02:52:22;15.30;;;6.97;;
56005;SDS011;41888;44.696;10.522;2024-02-04T02:54:49;13.68;;;6.80;;
56005;SDS011;41888;44.696;10.522;2024-02-04T02:57:15;15.90;;;6.55;;
56005;SDS011;41888;44.696;10.522;2024-02-04T02:59:42;13.98;;;7.07;;
56005;SDS011;41888;44.696;10.522;2024-02-04T03:02:08;14.18;;;7.10;;
56005;SDS011;41888;44.696;10.522;2024-02-04T03:04:34;15.30;;;7.15;;
56005;SDS011;41888;44.696;10.522;2024-02-04T03:07:01;18.42;;;7.53;;
56005;SDS011;41888;44.696;10.522;2024-02-04T03:09:27;18.85;;;7.22;;
56005;SDS011;41888;44.696;10.522;2024-02-04T03:11:53;15.60;;;7.25;;
56005;SDS011;41888;44.696;10.522;2024-02-04T03:14:19;13.88;;;7.55;;
56005;SDS011;41888;44.696;10.522;2024-02-04T03:16:46;14.45;;;7.50;;
56005;SDS011;41888;44.696;10.522;2024-02-04T03:19:12;19.45;;;9.75;;
56005;SDS011;41888;44.696;10.522;2024-02-04T03:21:38;19.30;;;8.70;;
56005;SDS011;41888;44.696;10.522;2024-02-04T03:24:04;18.48;;;8.60;;
56005;SDS011;41888;44.696;10.522;2024-02-04T03:26:31;20.33;;;9.63;;
56005;SDS011;41888;44.696;10.522;2024-02-04T03:28:57;19.92;;;9.68;;
56005;SDS011;41888;44.696;10.522;2024-02-04T03:31:23;19.40;;;8.77;;
56005;SDS011;41888;44.696;10.522;2024-02-04T03:33:50;14.68;;;8.18;;
56005;SDS011;41888;44.696;10.522;2024-02-04T03:36:18;17.30;;;8.18;;
56005;SDS011;41888;44.696;10.522;2024-02-04T03:38:48;19.63;;;8.80;;
56005;SDS011;41888;44.696;10.522;2024-02-04T03:41:15;21.70;;;9.25;;
56005;SDS011;41888;44.696;10.522;2024-02-04T03:43:41;13.60;;;7.85;;
56005;SDS011;41888;44.696;10.522;2024-02-04T03:46:08;18.40;;;8.68;;
56005;SDS011;41888;44.696;10.522;2024-02-04T03:48:38;16.90;;;8.60;;
56005;SDS011;41888;44.696;10.522;2024-02-04T03:51:04;18.40;;;8.82;;
56005;SDS011;41888;44.696;10.522;2024-02-04T03:53:30;20.38;;;8.60;;
56005;SDS011;41888;44.696;10.522;2024-02-04T03:55:56;16.45;;;7.90;;
56005;SDS011;41888;44.696;10.522;2024-02-04T03:58:23;18.80;;;8.40;;
56005;SDS011;41888;44.696;10.522;2024-02-04T04:00:54;15.52;;;7.75;;
56005;SDS011;41888;44.696;10.522;2024-02-04T04:03:21;15.45;;;7.80;;
56005;SDS011;41888;44.696;10.522;2024-02-04T04:05:48;17.92;;;7.65;;
56005;SDS011;41888;44.696;10.522;2024-02-04T04:08:15;14.57;;;6.50;;
56005;SDS011;41888;44.696;10.522;2024-02-04T04:10:43;16.27;;;7.43;;
56005;SDS011;41888;44.696;10.522;2024-02-04T04:13:09;14.52;;;6.85;;
56005;SDS011;41888;44.696;10.522;2024-02-04T04:15:35;12.68;;;6.38;;
56005;SDS011;41888;44.696;10.522;2024-02-04T04:18:02;17.35;;;7.07;;
56005;SDS011;41888;44.696;10.522;2024-02-04T04:20:29;14.05;;;6.80;;
56005;SDS011;41888;44.696;10.522;2024-02-04T04:22:55;12.75;;;6.70;;
56005;SDS011;41888;44.696;10.522;2024-02-04T04:25:21;15.15;;;6.70;;
56005;SDS011;41888;44.696;10.522;2024-02-04T04:27:47;15.93;;;7.07;;
56005;SDS011;41888;44.696;10.522;2024-02-04T04:30:13;12.70;;;5.97;;
56005;SDS011;41888;44.696;10.522;2024-02-04T04:32:40;21.02;;;7.13;;
56005;SDS011;41888;44.696;10.522;2024-02-04T04:35:06;16.60;;;7.40;;
56005;SDS011;41888;44.696;10.522;2024-02-04T04:37:32;15.35;;;7.80;;
56005;SDS011;41888;44.696;10.522;2024-02-04T04:39:58;13.00;;;6.25;;
56005;SDS011;41888;44.696;10.522;2024-02-04T04:42:24;15.63;;;6.00;;
56005;SDS011;41888;44.696;10.522;2024-02-04T04:44:51;12.60;;;6.55;;
56005;SDS011;41888;44.696;10.522;2024-02-04T04:47:17;14.77;;;6.55;;
56005;SDS011;41888;44.696;10.522;2024-02-04T04:49:43;14.88;;;5.65;;
56005;SDS011;41888;44.696;10.522;2024-02-04T04:52:09;13.95;;;6.22;;
56005;SDS011;41888;44.696;10.522;2024-02-04T04:54:35;15.43;;;6.43;;
56005;SDS011;41888;44.696;10.522;2024-02-04T04:57:01;16.33;;;6.40;;
56005;SDS011;41888;44.696;10.522;2024-02-04T04:59:27;15.45;;;7.43;;
56005;SDS011;41888;44.696;10.522;2024-02-04T05:01:54;11.93;;;6.60;;
56005;SDS011;41888;44.696;10.522;2024-02-04T05:04:20;12.65;;;6.93;;
56005;SDS011;41888;44.696;10.522;2024-02-04T05:06:50;14.88;;;7.32;;
56005;SDS011;41888;44.696;10.522;2024-02-04T05:09:16;18.27;;;8.43;;
56005;SDS011;41888;44.696;10.522;2024-02-04T05:11:42;14.02;;;7.55;;
56005;SDS011;41888;44.696;10.522;2024-02-04T05:14:09;17.75;;;9.00;;
56005;SDS011;41888;44.696;10.522;2024-02-04T05:16:35;19.38;;;8.82;;
56005;SDS011;41888;44.696;10.522;2024-02-04T05:19:01;17.05;;;7.88;;
56005;SDS011;41888;44.696;10.522;2024-02-04T05:21:28;13.60;;;7.57;;
56005;SDS011;41888;44.696;10.522;2024-02-04T05:23:54;16.20;;;8.02;;
56005;SDS011;41888;44.696;10.522;2024-02-04T05:26:20;12.25;;;7.15;;
56005;SDS011;41888;44.696;10.522;2024-02-04T05:28:47;14.57;;;7.57;;
56005;SDS011;41888;44.696;10.522;2024-02-04T05:31:13;18.67;;;8.85;;
56005;SDS011;41888;44.696;10.522;2024-02-04T05:33:39;17.10;;;8.20;;
56005;SDS011;41888;44.696;10.522;2024-02-04T05:36:05;15.00;;;7.30;;
56005;SDS011;41888;44.696;10.522;2024-02-04T05:38:31;17.50;;;8.65;;
56005;SDS011;41888;44.696;10.522;2024-02-04T05:40:58;15.18;;;7.93;;
56005;SDS011;41888;44.696;10.522;2024-02-04T05:43:25;11.93;;;6.43;;
56005;SDS011;41888;44.696;10.522;2024-02-04T05:45:51;16.10;;;7.30;;
56005;SDS011;41888;44.696;10.522;2024-02-04T05:48:17;13.50;;;7.13;;
56005;SDS011;41888;44.696;10.522;2024-02-04T05:50:43;17.10;;;7.88;;
56005;SDS011;41888;44.696;10.522;2024-02-04T05:53:09;17.20;;;8.68;;
56005;SDS011;41888;44.696;10.522;2024-02-04T05:55:35;14.18;;;8.73;;
56005;SDS011;41888;44.696;10.522;2024-02-04T05:58:01;14.95;;;8.45;;
56005;SDS011;41888;44.696;10.522;2024-02-04T06:00:28;18.27;;;7.43;;
56005;SDS011;41888;44.696;10.522;2024-02-04T06:02:55;14.20;;;7.28;;
56005;SDS011;41888;44.696;10.522;2024-02-04T06:05:21;14.32;;;7.10;;
56005;SDS011;41888;44.696;10.522;2024-02-04T06:07:47;14.27;;;7.78;;
56005;SDS011;41888;44.696;10.522;2024-02-04T06:10:13;18.55;;;7.97;;
56005;SDS011;41888;44.696;10.522;2024-02-04T06:12:39;14.77;;;7.47;;
56005;SDS011;41888;44.696;10.522;2024-02-04T06:15:13;15.98;;;7.78;;
56005;SDS011;41888;44.696;10.522;2024-02-04T06:17:40;17.35;;;7.88;;
56005;SDS011;41888;44.696;10.522;2024-02-04T06:20:06;14.95;;;7.70;;
56005;SDS011;41888;44.696;10.522;2024-02-04T06:22:36;12.57;;;6.57;;
56005;SDS011;41888;44.696;10.522;2024-02-04T06:25:02;15.95;;;7.55;;
56005;SDS011;41888;44.696;10.522;2024-02-04T06:27:29;15.07;;;7.55;;
56005;SDS011;41888;44.696;10.522;2024-02-04T06:29:55;14.73;;;7.35;;
56005;SDS011;41888;44.696;10.522;2024-02-04T06:32:22;16.08;;;6.60;;
56005;SDS011;41888;44.696;10.522;2024-02-04T06:34:49;17.65;;;7.25;;
56005;SDS011;41888;44.696;10.522;2024-02-04T06:37:16;13.73;;;6.22;;
56005;SDS011;41888;44.696;10.522;2024-02-04T06:39:42;19.52;;;9.13;;
56005;SDS011;41888;44.696;10.522;2024-02-04T06:42:09;17.17;;;8.63;;
56005;SDS011;41888;44.696;10.522;2024-02-04T06:44:35;15.30;;;7.22;;
56005;SDS011;41888;44.696;10.522;2024-02-04T06:47:01;15.45;;;8.13;;
56005;SDS011;41888;44.696;10.522;2024-02-04T06:49:27;18.83;;;8.15;;
56005;SDS011;41888;44.696;10.522;2024-02-04T06:51:53;17.88;;;8.85;;
56005;SDS011;41888;44.696;10.522;2024-02-04T06:54:22;15.68;;;8.63;;
56005;SDS011;41888;44.696;10.522;2024-02-04T06:56:49;13.43;;;7.60;;
56005;SDS011;41888;44.696;10.522;2024-02-04T06:59:16;15.05;;;8.15;;
56005;SDS011;41888;44.696;10.522;2024-02-04T07:01:42;16.80;;;7.10;;
56005;SDS011;41888;44.696;10.522;2024-02-04T07:04:08;16.35;;;7.53;;
56005;SDS011;41888;44.696;10.522;2024-02-04T07:06:34;14.50;;;8.18;;
56005;SDS011;41888;44.696;10.522;2024-02-04T07:09:01;20.92;;;8.35;;
56005;SDS011;41888;44.696;10.522;2024-02-04T07:11:27;15.93;;;7.72;;
56005;SDS011;41888;44.696;10.522;2024-02-04T07:13:53;21.48;;;10.07;;
56005;SDS011;41888;44.696;10.522;2024-02-04T07:16:26;21.25;;;11.75;;
56005;SDS011;41888;44.696;10.522;2024-02-04T07:18:54;20.08;;;10.05;;
56005;SDS011;41888;44.696;10.522;2024-02-04T07:21:21;22.80;;;11.73;;
56005;SDS011;41888;44.696;10.522;2024-02-04T07:23:47;21.83;;;10.50;;
56005;SDS011;41888;44.696;10.522;2024-02-04T07:26:13;24.58;;;12.23;;
56005;SDS011;41888;44.696;10.522;2024-02-04T07:28:39;23.90;;;12.00;;
56005;SDS011;41888;44.696;10.522;2024-02-04T07:31:06;30.50;;;14.45;;
56005;SDS011;41888;44.696;10.522;2024-02-04T07:33:32;29.73;;;13.77;;
56005;SDS011;41888;44.696;10.522;2024-02-04T07:35:58;26.80;;;13.52;;
56005;SDS011;41888;44.696;10.522;2024-02-04T07:38:24;23.20;;;12.50;;
56005;SDS011;41888;44.696;10.522;2024-02-04T07:40:50;23.35;;;11.80;;
56005;SDS011;41888;44.696;10.522;2024-02-04T07:43:18;27.42;;;15.13;;
56005;SDS011;41888;44.696;10.522;2024-02-04T07:45:44;33.78;;;15.07;;
56005;SDS011;41888;44.696;10.522;2024-02-04T07:48:11;35.67;;;15.80;;
56005;SDS011;41888;44.696;10.522;2024-02-04T07:50:37;34.53;;;17.65;;
56005;SDS011;41888;44.696;10.522;2024-02-04T07:53:03;39.85;;;18.77;;
56005;SDS011;41888;44.696;10.522;2024-02-04T07:55:29;34.25;;;19.08;;
56005;SDS011;41888;44.696;10.522;2024-02-04T07:57:55;31.08;;;16.30;;
56005;SDS011;41888;44.696;10.522;2024-02-04T08:00:21;37.67;;;19.13;;
56005;SDS011;41888;44.696;10.522;2024-02-04T08:02:48;36.55;;;20.73;;
56005;SDS011;41888;44.696;10.522;2024-02-04T08:05:14;48.38;;;24.70;;
56005;SDS011;41888;44.696;10.522;2024-02-04T08:07:40;49.88;;;25.83;;
56005;SDS011;41888;44.696;10.522;2024-02-04T08:10:06;50.45;;;26.35;;
56005;SDS011;41888;44.696;10.522;2024-02-04T08:12:33;44.60;;;23.20;;
56005;SDS011;41888;44.696;10.522;2024-02-04T08:14:59;49.42;;;24.00;;
56005;SDS011;41888;44.696;10.522;2024-02-04T08:17:25;42.35;;;22.30;;
56005;SDS011;41888;44.696;10.522;2024-02-04T08:19:53;37.03;;;21.10;;
56005;SDS011;41888;44.696;10.522;2024-02-04T08:22:20;38.90;;;21.25;;
56005;SDS011;41888;44.696;10.522;2024-02-04T08:24:46;41.65;;;23.55;;
56005;SDS011;41888;44.696;10.522;2024-02-04T08:27:12;41.20;;;22.67;;
56005;SDS011;41888;44.696;10.522;2024-02-04T08:29:41;44.25;;;23.75;;
56005;SDS011;41888;44.696;10.522;2024-02-04T08:32:08;43.35;;;24.25;;
56005;SDS011;41888;44.696;10.522;2024-02-04T08:34:34;43.60;;;24.15;;
56005;SDS011;41888;44.696;10.522;2024-02-04T08:37:00;41.65;;;23.80;;
56005;SDS011;41888;44.696;10.522;2024-02-04T08:39:28;43.85;;;23.77;;
56005;SDS011;41888;44.696;10.522;2024-02-04T08:41:55;45.38;;;25.73;;
56005;SDS011;41888;44.696;10.522;2024-02-04T08:44:21;38.88;;;23.45;;
56005;SDS011;41888;44.696;10.522;2024-02-04T08:46:48;38.42;;;23.30;;
56005;SDS011;41888;44.696;10.522;2024-02-04T08:49:14;38.15;;;23.58;;
56005;SDS011;41888;44.696;10.522;2024-02-04T08:51:40;40.22;;;23.35;;
56005;SDS011;41888;44.696;10.522;2024-02-04T08:54:06;42.22;;;25.17;;
56005;SDS011;41888;44.696;10.522;2024-02-04T08:56:33;41.28;;;23.58;;
56005;SDS011;41888;44.696;10.522;2024-02-04T08:58:59;36.30;;;23.23;;
56005;SDS011;41888;44.696;10.522;2024-02-04T09:01:26;46.83;;;24.00;;
56005;SDS011;41888;44.696;10.522;2024-02-04T09:03:53;38.95;;;23.60;;
56005;SDS011;41888;44.696;10.522;2024-02-04T09:06:19;36.25;;;23.88;;
56005;SDS011;41888;44.696;10.522;2024-02-04T09:08:46;36.60;;;21.90;;
56005;SDS011;41888;44.696;10.522;2024-02-04T09:11:12;36.25;;;23.13;;
56005;SDS011;41888;44.696;10.522;2024-02-04T09:13:43;34.97;;;23.33;;
56005;SDS011;41888;44.696;10.522;2024-02-04T09:16:10;37.17;;;23.35;;
56005;SDS011;41888;44.696;10.522;2024-02-04T09:18:36;38.20;;;24.73;;
56005;SDS011;41888;44.696;10.522;2024-02-04T09:21:03;35.45;;;24.60;;
56005;SDS011;41888;44.696;10.522;2024-02-04T09:23:29;42.08;;;27.77;;
56005;SDS011;41888;44.696;10.522;2024-02-04T09:25:55;37.45;;;26.27;;
56005;SDS011;41888;44.696;10.522;2024-02-04T09:28:21;43.08;;;28.55;;
56005;SDS011;41888;44.696;10.522;2024-02-04T09:30:47;43.50;;;27.80;;
56005;SDS011;41888;44.696;10.522;2024-02-04T09:33:13;43.35;;;27.02;;
56005;SDS011;41888;44.696;10.522;2024-02-04T09:35:40;41.60;;;27.08;;
56005;SDS011;41888;44.696;10.522;2024-02-04T09:38:06;37.95;;;24.23;;
56005;SDS011;41888;44.696;10.522;2024-02-04T09:40:32;33.40;;;22.58;;
56005;SDS011;41888;44.696;10.522;2024-02-04T09:42:59;33.25;;;22.10;;
56005;SDS011;41888;44.696;10.522;2024-02-04T09:45:26;35.25;;;23.27;;
56005;SDS011;41888;44.696;10.522;2024-02-04T09:47:52;36.63;;;23.58;;
56005;SDS011;41888;44.696;10.522;2024-02-04T09:50:20;39.55;;;23.95;;
56005;SDS011;41888;44.696;10.522;2024-02-04T09:52:49;42.88;;;24.70;;
56005;SDS011;41888;44.696;10.522;2024-02-04T09:55:20;39.70;;;25.98;;
56005;SDS011;41888;44.696;10.522;2024-02-04T09:57:46;42.17;;;26.15;;
56005;SDS011;41888;44.696;10.522;2024-02-04T10:00:13;42.45;;;24.90;;
56005;SDS011;41888;44.696;10.522;2024-02-04T10:02:39;37.10;;;21.52;;
56005;SDS011;41888;44.696;10.522;2024-02-04T10:05:07;31.67;;;20.30;;
56005;SDS011;41888;44.696;10.522;2024-02-04T10:07:35;32.03;;;20.42;;
56005;SDS011;41888;44.696;10.522;2024-02-04T10:10:02;35.78;;;20.50;;
56005;SDS011;41888;44.696;10.522;2024-02-04T10:12:28;36.38;;;22.17;;
56005;SDS011;41888;44.696;10.522;2024-02-04T10:14:54;36.40;;;22.88;;
56005;SDS011;41888;44.696;10.522;2024-02-04T10:17:21;36.67;;;21.35;;
56005;SDS011;41888;44.696;10.522;2024-02-04T10:19:48;36.17;;;20.27;;
56005;SDS011;41888;44.696;10.522;2024-02-04T10:22:14;34.38;;;20.63;;
56005;SDS011;41888;44.696;10.522;2024-02-04T10:24:42;29.60;;;18.73;;
56005;SDS011;41888;44.696;10.522;2024-02-04T10:27:11;27.75;;;17.10;;
56005;SDS011;41888;44.696;10.522;2024-02-04T10:29:37;33.75;;;19.25;;
56005;SDS011;41888;44.696;10.522;2024-02-04T10:32:04;26.85;;;16.40;;
56005;SDS011;41888;44.696;10.522;2024-02-04T10:34:30;28.08;;;15.85;;
56005;SDS011;41888;44.696;10.522;2024-02-04T10:36:57;24.42;;;15.13;;
56005;SDS011;41888;44.696;10.522;2024-02-04T10:39:23;20.38;;;13.45;;
56005;SDS011;41888;44.696;10.522;2024-02-04T10:41:49;21.50;;;14.57;;
56005;SDS011;41888;44.696;10.522;2024-02-04T10:44:19;21.77;;;15.77;;
56005;SDS011;41888;44.696;10.522;2024-02-04T10:46:49;23.50;;;14.85;;
56005;SDS011;41888;44.696;10.522;2024-02-04T10:49:17;24.25;;;15.50;;
56005;SDS011;41888;44.696;10.522;2024-02-04T10:51:45;20.10;;;14.05;;
56005;SDS011;41888;44.696;10.522;2024-02-04T10:54:14;24.65;;;15.45;;
56005;SDS011;41888;44.696;10.522;2024-02-04T10:56:44;24.83;;;16.92;;
56005;SDS011;41888;44.696;10.522;2024-02-04T10:59:14;23.58;;;17.40;;
56005;SDS011;41888;44.696;10.522;2024-02-04T11:01:43;27.17;;;16.58;;
56005;SDS011;41888;44.696;10.522;2024-02-04T11:04:13;25.33;;;17.83;;
56005;SDS011;41888;44.696;10.522;2024-02-04T11:06:41;24.08;;;18.13;;
56005;SDS011;41888;44.696;10.522;2024-02-04T11:09:09;28.98;;;18.77;;
56005;SDS011;41888;44.696;10.522;2024-02-04T11:11:36;28.58;;;18.10;;
56005;SDS011;41888;44.696;10.522;2024-02-04T11:14:05;25.48;;;18.45;;
56005;SDS011;41888;44.696;10.522;2024-02-04T11:22:22;26.00;;;18.02;;
56005;SDS011;41888;44.696;10.522;2024-02-04T11:28:09;26.85;;;19.25;;
56005;SDS011;41888;44.696;10.522;2024-02-04T11:30:37;34.35;;;22.17;;
56005;SDS011;41888;44.696;10.522;2024-02-04T11:33:03;25.88;;;18.42;;
56005;SDS011;41888;44.696;10.522;2024-02-04T11:35:32;32.15;;;22.02;;
56005;SDS011;41888;44.696;10.522;2024-02-04T11:37:59;30.23;;;19.92;;
56005;SDS011;41888;44.696;10.522;2024-02-04T11:40:35;33.08;;;19.77;;
56005;SDS011;41888;44.696;10.522;2024-02-04T11:43:12;31.48;;;20.80;;
56005;SDS011;41888;44.696;10.522;2024-02-04T11:45:40;31.95;;;20.10;;
56005;SDS011;41888;44.696;10.522;2024-02-04T11:48:07;32.17;;;21.00;;
56005;SDS011;41888;44.696;10.522;2024-02-04T11:50:37;31.02;;;20.17;;
56005;SDS011;41888;44.696;10.522;2024-02-04T11:55:35;32.83;;;21.70;;
56005;SDS011;41888;44.696;10.522;2024-02-04T11:58:02;31.85;;;22.60;;
56005;SDS011;41888;44.696;10.522;2024-02-04T12:00:34;31.75;;;22.95;;
56005;SDS011;41888;44.696;10.522;2024-02-04T12:03:02;35.00;;;23.08;;
56005;SDS011;41888;44.696;10.522;2024-02-04T12:05:32;33.85;;;22.95;;
56005;SDS011;41888;44.696;10.522;2024-02-04T12:08:03;33.63;;;22.42;;
56005;SDS011;41888;44.696;10.522;2024-02-04T12:10:31;35.90;;;23.20;;
56005;SDS011;41888;44.696;10.522;2024-02-04T12:12:59;32.13;;;23.45;;
56005;SDS011;41888;44.696;10.522;2024-02-04T12:15:28;34.67;;;24.02;;
56005;SDS011;41888;44.696;10.522;2024-02-04T12:17:55;33.72;;;23.50;;
56005;SDS011;41888;44.696;10.522;2024-02-04T12:20:30;33.38;;;23.02;;
56005;SDS011;41888;44.696;10.522;2024-02-04T12:22:56;35.13;;;23.63;;
56005;SDS011;41888;44.696;10.522;2024-02-04T12:25:23;34.28;;;24.63;;
56005;SDS011;41888;44.696;10.522;2024-02-04T12:27:52;36.17;;;24.00;;
56005;SDS011;41888;44.696;10.522;2024-02-04T12:30:18;31.55;;;23.15;;
56005;SDS011;41888;44.696;10.522;2024-02-04T12:32:55;32.15;;;23.75;;
56005;SDS011;41888;44.696;10.522;2024-02-04T12:35:31;37.97;;;24.90;;
56005;SDS011;41888;44.696;10.522;2024-02-04T12:37:58;33.95;;;23.95;;
56005;SDS011;41888;44.696;10.522;2024-02-04T12:40:25;35.22;;;24.65;;
56005;SDS011;41888;44.696;10.522;2024-02-04T12:42:56;32.63;;;23.80;;
56005;SDS011;41888;44.696;10.522;2024-02-04T12:45:22;35.72;;;24.48;;
56005;SDS011;41888;44.696;10.522;2024-02-04T12:47:52;37.17;;;24.88;;
56005;SDS011;41888;44.696;10.522;2024-02-04T12:50:20;33.45;;;24.05;;
56005;SDS011;41888;44.696;10.522;2024-02-04T12:53:08;32.28;;;23.67;;
56005;SDS011;41888;44.696;10.522;2024-02-04T12:55:37;33.97;;;22.95;;
56005;SDS011;41888;44.696;10.522;2024-02-04T12:58:07;41.72;;;26.63;;
56005;SDS011;41888;44.696;10.522;2024-02-04T13:00:37;35.88;;;25.67;;
56005;SDS011;41888;44.696;10.522;2024-02-04T13:03:04;37.38;;;24.60;;
56005;SDS011;41888;44.696;10.522;2024-02-04T13:05:36;38.50;;;25.58;;
56005;SDS011;41888;44.696;10.522;2024-02-04T13:08:03;37.65;;;24.77;;
56005;SDS011;41888;44.696;10.522;2024-02-04T13:10:34;41.10;;;27.65;;
56005;SDS011;41888;44.696;10.522;2024-02-04T13:13:01;38.33;;;25.02;;
56005;SDS011;41888;44.696;10.522;2024-02-04T13:15:31;38.72;;;26.00;;
56005;SDS011;41888;44.696;10.522;2024-02-04T13:17:58;38.97;;;24.67;;
56005;SDS011;41888;44.696;10.522;2024-02-04T13:20:25;41.92;;;25.75;;
56005;SDS011;41888;44.696;10.522;2024-02-04T13:22:51;36.60;;;25.95;;
56005;SDS011;41888;44.696;10.522;2024-02-04T13:25:21;40.25;;;24.30;;
56005;SDS011;41888;44.696;10.522;2024-02-04T13:27:47;37.88;;;24.00;;
56005;SDS011;41888;44.696;10.522;2024-02-04T13:30:15;41.58;;;26.00;;
56005;SDS011;41888;44.696;10.522;2024-02-04T13:32:42;40.67;;;24.80;;
56005;SDS011;41888;44.696;10.522;2024-02-04T13:35:08;34.42;;;23.17;;
56005;SDS011;41888;44.696;10.522;2024-02-04T13:37:36;38.83;;;25.17;;
56005;SDS011;41888;44.696;10.522;2024-02-04T13:40:07;41.08;;;26.15;;
56005;SDS011;41888;44.696;10.522;2024-02-04T13:42:34;39.05;;;24.95;;
56005;SDS011;41888;44.696;10.522;2024-02-04T13:45:01;36.47;;;23.65;;
56005;SDS011;41888;44.696;10.522;2024-02-04T13:47:28;37.78;;;24.63;;
56005;SDS011;41888;44.696;10.522;2024-02-04T13:49:54;38.30;;;23.52;;
56005;SDS011;41888;44.696;10.522;2024-02-04T13:52:21;40.40;;;25.10;;
56005;SDS011;41888;44.696;10.522;2024-02-04T13:54:48;40.10;;;25.45;;
56005;SDS011;41888;44.696;10.522;2024-02-04T13:57:14;40.10;;;25.63;;
56005;SDS011;41888;44.696;10.522;2024-02-04T13:59:40;41.03;;;25.55;;
56005;SDS011;41888;44.696;10.522;2024-02-04T14:02:07;40.17;;;25.33;;
56005;SDS011;41888;44.696;10.522;2024-02-04T14:04:34;42.55;;;26.98;;
56005;SDS011;41888;44.696;10.522;2024-02-04T14:07:01;43.42;;;24.27;;
56005;SDS011;41888;44.696;10.522;2024-02-04T14:09:28;38.00;;;23.90;;
56005;SDS011;41888;44.696;10.522;2024-02-04T14:11:54;38.88;;;24.98;;
56005;SDS011;41888;44.696;10.522;2024-02-04T14:14:22;39.65;;;25.20;;
56005;SDS011;41888;44.696;10.522;2024-02-04T14:16:49;38.40;;;23.00;;
56005;SDS011;41888;44.696;10.522;2024-02-04T14:19:15;43.80;;;27.08;;
56005;SDS011;41888;44.696;10.522;2024-02-04T14:21:42;42.22;;;24.77;;
56005;SDS011;41888;44.696;10.522;2024-02-04T14:24:08;41.05;;;24.02;;
56005;SDS011;41888;44.696;10.522;2024-02-04T14:26:34;39.63;;;25.17;;
56005;SDS011;41888;44.696;10.522;2024-02-04T14:29:01;37.13;;;24.17;;